createdAt,value
2019-05-14T00:02:04.869Z,7.10
2019-05-14T00:04:35.211Z,7.10
2019-05-14T00:07:05.561Z,7.00
2019-05-14T00:09:35.882Z,7.00
2019-05-14T00:12:06.253Z,7.00
2019-05-14T00:14:40.006Z,7.00
2019-05-14T00:17:08.617Z,6.90
2019-05-14T00:19:41.362Z,6.90
2019-05-14T00:22:11.642Z,6.80
2019-05-14T00:24:42.178Z,6.80
2019-05-14T00:27:12.526Z,6.80
2019-05-14T00:29:42.939Z,6.70
2019-05-14T00:32:13.334Z,6.70
2019-05-14T00:34:43.746Z,6.70
2019-05-14T00:37:14.061Z,6.60
2019-05-14T00:39:44.358Z,6.50
2019-05-14T00:42:15.806Z,6.50
2019-05-14T00:44:54.317Z,6.50
2019-05-14T00:47:18.110Z,6.50
2019-05-14T00:49:48.437Z,6.40
2019-05-14T00:52:18.721Z,6.40
2019-05-14T00:54:49.041Z,6.30
2019-05-14T00:57:21.140Z,6.30
2019-05-14T00:59:52.108Z,6.20
2019-05-14T01:02:22.671Z,6.20
2019-05-14T01:04:53.149Z,6.10
2019-05-14T01:07:23.482Z,6.10
2019-05-14T01:09:54.032Z,6.10
2019-05-14T01:12:24.458Z,6.10
2019-05-14T01:15:06.940Z,6.10
2019-05-14T01:17:26.722Z,6.00
2019-05-14T01:19:57.065Z,6.00
2019-05-14T01:22:27.397Z,6.00
2019-05-14T01:24:57.698Z,6.00
2019-05-14T01:27:28.101Z,5.90
2019-05-14T01:29:58.461Z,5.80
2019-05-14T01:32:31.377Z,5.80
2019-05-14T01:35:01.350Z,5.80
2019-05-14T01:37:32.185Z,5.80
2019-05-14T01:40:02.484Z,5.70
2019-05-14T01:42:32.896Z,5.80
2019-05-14T01:45:03.227Z,5.70
2019-05-14T01:47:33.547Z,5.70
2019-05-14T01:50:03.985Z,5.70
2019-05-14T01:52:34.329Z,5.70
2019-05-14T01:55:04.795Z,5.70
2019-05-14T01:57:35.118Z,5.60
2019-05-14T02:00:06.854Z,5.50
2019-05-14T02:02:37.209Z,5.50
2019-05-14T02:05:08.209Z,5.50
2019-05-14T02:07:38.950Z,5.40
2019-05-14T02:10:11.633Z,5.40
2019-05-14T02:12:42.319Z,5.30
2019-05-14T02:15:13.355Z,5.30
2019-05-14T02:17:43.786Z,5.20
2019-05-14T02:20:14.366Z,5.20
2019-05-14T02:22:44.706Z,5.20
2019-05-14T02:25:15.046Z,5.20
2019-05-14T02:27:45.381Z,5.10
2019-05-14T02:30:19.169Z,5.10
2019-05-14T02:32:49.852Z,5.10
2019-05-14T02:35:20.296Z,5.00
2019-05-14T02:37:50.845Z,5.10
2019-05-14T02:40:21.474Z,5.10
2019-05-14T02:42:51.817Z,5.10
2019-05-14T02:45:22.118Z,5.00
2019-05-14T02:47:53.660Z,5.10
2019-05-14T02:50:23.980Z,5.00
2019-05-14T02:52:54.343Z,5.00
2019-05-14T02:55:24.714Z,5.00
2019-05-14T02:57:59.533Z,4.90
2019-05-14T03:00:29.983Z,4.90
2019-05-14T03:02:59.789Z,4.90
2019-05-14T03:05:30.648Z,4.90
2019-05-14T03:08:00.947Z,4.90
2019-05-14T03:10:31.372Z,4.90
2019-05-14T03:13:01.686Z,4.90
2019-05-14T03:15:31.991Z,4.90
2019-05-14T03:18:02.561Z,4.80
2019-05-14T03:20:32.854Z,4.80
2019-05-14T03:23:08.921Z,4.80
2019-05-14T03:25:35.207Z,4.80
2019-05-14T03:28:09.027Z,4.80
2019-05-14T03:30:42.255Z,4.80
2019-05-14T03:33:13.240Z,4.80
2019-05-14T03:35:50.079Z,4.80
2019-05-14T03:38:15.079Z,4.70
2019-05-14T03:40:45.368Z,4.70
2019-05-14T03:43:15.754Z,4.70
2019-05-14T03:45:49.257Z,4.70
2019-05-14T03:48:19.017Z,4.70
2019-05-14T03:50:49.859Z,4.70
2019-05-14T03:53:20.433Z,4.70
2019-05-14T03:55:50.859Z,4.60
2019-05-14T03:58:21.609Z,4.60
2019-05-14T04:01:00.336Z,4.50
2019-05-14T04:03:31.670Z,4.50
2019-05-14T04:06:02.975Z,4.60
2019-05-14T04:08:34.940Z,4.60
2019-05-14T04:11:05.221Z,4.60
2019-05-14T04:13:40.566Z,4.60
2019-05-14T04:16:11.203Z,4.60
2019-05-14T04:18:42.030Z,4.60
2019-05-14T04:21:13.973Z,4.60
2019-05-14T04:23:50.800Z,4.60
2019-05-14T04:26:21.880Z,4.60
2019-05-14T04:28:52.437Z,4.70
2019-05-14T04:31:22.755Z,4.70
2019-05-14T04:33:54.518Z,4.70
2019-05-14T04:36:24.958Z,4.70
2019-05-14T04:39:00.503Z,4.70
2019-05-14T04:41:30.026Z,4.70
2019-05-14T04:44:00.659Z,4.70
2019-05-14T04:46:31.227Z,4.80
2019-05-14T04:49:01.772Z,4.80
2019-05-14T04:51:33.672Z,4.80
2019-05-14T04:54:09.417Z,4.90
2019-05-14T04:56:40.517Z,4.90
2019-05-14T04:59:10.973Z,5.00
2019-05-14T05:01:41.947Z,5.00
2019-05-14T05:04:12.218Z,5.10
2019-05-14T05:06:42.532Z,5.10
2019-05-14T05:09:12.921Z,5.20
2019-05-14T05:11:43.238Z,5.20
2019-05-14T05:14:13.535Z,5.30
2019-05-14T05:16:43.834Z,5.40
2019-05-14T05:19:14.155Z,5.50
2019-05-14T05:21:44.477Z,5.60
2019-05-14T05:24:14.846Z,5.60
2019-05-14T05:26:45.143Z,5.60
2019-05-14T05:29:15.581Z,5.70
2019-05-14T05:31:48.609Z,5.70
2019-05-14T05:34:19.303Z,5.80
2019-05-14T05:36:49.851Z,5.80
2019-05-14T05:39:20.267Z,5.80
2019-05-14T05:41:50.612Z,5.90
2019-05-14T05:44:20.889Z,5.90
2019-05-14T05:46:51.893Z,5.90
2019-05-14T05:49:23.521Z,6.00
2019-05-14T05:51:53.877Z,6.10
2019-05-14T05:54:24.277Z,6.10
2019-05-14T05:56:54.650Z,6.20
2019-05-14T05:59:25.107Z,6.20
2019-05-14T06:01:58.438Z,6.30
2019-05-14T06:04:28.945Z,6.40
2019-05-14T06:07:02.511Z,6.40
2019-05-14T06:09:31.501Z,6.40
2019-05-14T06:12:01.907Z,6.50
2019-05-14T06:14:32.241Z,6.50
2019-05-14T06:17:02.545Z,6.50
2019-05-14T06:19:32.849Z,6.50
2019-05-14T06:22:04.294Z,6.50
2019-05-14T06:24:34.793Z,6.50
2019-05-14T06:27:05.121Z,6.50
2019-05-14T06:29:35.427Z,6.60
2019-05-14T06:32:05.810Z,6.70
2019-05-14T06:34:38.235Z,6.70
2019-05-14T06:37:08.515Z,6.80
2019-05-14T06:39:41.381Z,6.90
2019-05-14T06:42:19.059Z,7.00
2019-05-14T06:44:49.662Z,7.00
2019-05-14T06:47:21.680Z,7.00
2019-05-14T06:49:52.097Z,7.00
2019-05-14T06:52:28.981Z,7.10
2019-05-14T06:55:02.627Z,7.20
2019-05-14T06:57:35.411Z,7.30
2019-05-14T07:00:09.749Z,7.40
2019-05-14T07:02:44.266Z,7.40
2019-05-14T07:05:18.686Z,7.50
2019-05-14T07:07:49.998Z,7.60
2019-05-14T07:10:23.394Z,7.70
2019-05-14T07:12:53.717Z,7.70
2019-05-14T07:15:25.818Z,7.80
2019-05-14T07:17:58.429Z,7.90
2019-05-14T07:20:28.864Z,7.90
2019-05-14T07:22:59.195Z,8.00
2019-05-14T07:25:29.515Z,8.00
2019-05-14T07:27:59.805Z,8.10
2019-05-14T07:30:30.108Z,8.20
2019-05-14T07:33:00.430Z,8.30
2019-05-14T07:35:30.757Z,8.40
2019-05-14T07:38:01.146Z,8.40
2019-05-14T07:40:31.515Z,8.50
2019-05-14T07:43:01.940Z,8.60
2019-05-14T07:45:33.498Z,8.80
2019-05-14T07:48:04.011Z,8.90
2019-05-14T07:50:34.309Z,9.00
2019-05-14T07:53:04.701Z,9.10
2019-05-14T07:55:35.030Z,9.20
2019-05-14T07:58:05.463Z,9.30
2019-05-14T08:00:35.783Z,9.40
2019-05-14T08:03:08.088Z,9.50
2019-05-14T08:05:39.133Z,9.60
2019-05-14T08:08:09.613Z,9.50
2019-05-14T08:10:40.235Z,9.40
2019-05-14T08:13:10.525Z,9.50
2019-05-14T08:15:41.325Z,9.50
2019-05-14T08:18:11.803Z,9.60
2019-05-14T08:20:42.137Z,9.80
2019-05-14T08:23:12.465Z,10.00
2019-05-14T08:25:42.797Z,10.20
2019-05-14T08:28:13.353Z,10.20
2019-05-14T08:30:43.654Z,10.30
2019-05-14T08:33:14.010Z,10.20
2019-05-14T08:35:44.317Z,10.30
2019-05-14T08:38:14.927Z,10.50
2019-05-14T08:40:45.390Z,10.60
2019-05-14T08:43:18.284Z,10.60
2019-05-14T08:45:48.738Z,10.60
2019-05-14T08:48:19.270Z,10.70
2019-05-14T08:50:49.589Z,10.80
2019-05-14T08:55:07.108Z,10.90
2019-05-14T08:57:29.189Z,11.30
2019-05-14T09:00:01.038Z,11.30
2019-05-14T09:02:31.792Z,11.50
2019-05-14T09:05:04.567Z,11.30
2019-05-14T09:07:34.077Z,11.30
2019-05-14T09:10:05.347Z,11.20
2019-05-14T09:12:35.852Z,11.20
2019-05-14T09:15:06.553Z,11.50
2019-05-14T09:17:39.041Z,11.70
2019-05-14T09:20:11.533Z,11.90
2019-05-14T09:22:41.152Z,11.90
2019-05-14T09:25:12.170Z,12.00
2019-05-14T09:27:42.517Z,11.90
2019-05-14T09:30:13.230Z,11.90
2019-05-14T09:32:43.681Z,11.90
2019-05-14T09:35:14.081Z,11.90
2019-05-14T09:37:44.487Z,12.00
2019-05-14T09:40:14.918Z,12.00
2019-05-14T09:42:45.306Z,12.10
2019-05-14T09:45:15.858Z,12.10
2019-05-14T09:47:49.986Z,12.20
2019-05-14T09:50:23.149Z,12.10
2019-05-14T09:52:50.882Z,11.90
2019-05-14T09:55:21.206Z,12.00
2019-05-14T09:57:51.547Z,12.40
2019-05-14T10:00:22.944Z,12.60
2019-05-14T10:02:53.350Z,12.60
2019-05-14T10:05:23.659Z,12.40
2019-05-14T10:07:54.084Z,12.40
2019-05-14T10:10:24.484Z,12.40
2019-05-14T10:12:57.296Z,12.50
2019-05-14T10:15:28.695Z,12.70
2019-05-14T10:18:00.204Z,12.80
2019-05-14T10:20:40.990Z,12.90
2019-05-14T10:23:04.194Z,13.00
2019-05-14T10:25:34.671Z,13.10
2019-05-14T10:28:05.019Z,13.20
2019-05-14T10:30:35.362Z,13.20
2019-05-14T10:33:13.852Z,13.10
2019-05-14T10:35:39.090Z,13.00
2019-05-14T10:38:10.983Z,13.20
2019-05-14T10:40:41.309Z,13.50
2019-05-14T10:43:11.707Z,13.60
2019-05-14T10:45:42.013Z,13.60
2019-05-14T10:48:12.331Z,13.80
2019-05-14T10:50:56.084Z,14.00
2019-05-14T10:53:15.330Z,14.30
2019-05-14T10:55:45.674Z,14.40
2019-05-14T10:58:19.347Z,14.30
2019-05-14T11:01:10.955Z,14.10
2019-05-14T11:03:55.346Z,13.70
2019-05-14T11:06:29.090Z,13.90
2019-05-14T11:09:15.210Z,14.10
2019-05-14T11:12:03.533Z,14.10
2019-05-14T11:14:51.647Z,14.20
2019-05-14T11:17:40.692Z,14.50
2019-05-14T11:20:31.138Z,14.70
2019-05-14T11:23:18.591Z,15.10
2019-05-14T11:26:09.014Z,15.50
2019-05-14T11:28:58.323Z,15.90
2019-05-14T11:31:48.274Z,16.10
2019-05-14T11:34:35.617Z,15.80
2019-05-14T11:37:24.151Z,15.30
2019-05-14T11:39:55.459Z,14.90
2019-05-14T11:42:25.843Z,15.00
2019-05-14T11:44:58.118Z,15.40
2019-05-14T11:47:28.153Z,15.70
2019-05-14T11:49:59.948Z,15.80
2019-05-14T11:52:31.958Z,15.70
2019-05-14T11:55:02.605Z,15.50
2019-05-14T11:57:34.465Z,15.70
2019-05-14T12:00:08.528Z,15.70
2019-05-14T12:02:39.086Z,15.70
2019-05-14T12:05:12.989Z,15.90
2019-05-14T12:07:43.294Z,16.20
2019-05-14T12:10:13.814Z,16.50
2019-05-14T12:12:44.170Z,16.70
2019-05-14T12:15:14.741Z,16.80
2019-05-14T12:17:45.442Z,16.60
2019-05-14T12:20:17.591Z,16.70
2019-05-14T12:22:48.771Z,16.50
2019-05-14T12:25:19.316Z,16.30
2019-05-14T12:27:50.118Z,16.40
2019-05-14T12:30:20.602Z,16.30
2019-05-14T12:32:51.003Z,16.10
2019-05-14T12:35:21.343Z,16.10
2019-05-14T12:37:51.662Z,16.50
2019-05-14T12:40:22.142Z,16.60
2019-05-14T12:42:52.542Z,16.40
2019-05-14T12:45:22.967Z,16.00
2019-05-14T12:47:53.309Z,15.80
2019-05-14T12:50:23.630Z,16.10
2019-05-14T12:52:53.967Z,16.20
2019-05-14T12:55:24.359Z,16.40
2019-05-14T12:57:54.663Z,16.80
2019-05-14T13:00:25.961Z,17.20
2019-05-14T13:02:58.577Z,17.20
2019-05-14T13:05:29.403Z,16.90
2019-05-14T13:07:59.885Z,16.30
2019-05-14T13:10:30.217Z,16.00
2019-05-14T13:13:00.634Z,15.80
2019-05-14T13:15:31.055Z,16.00
2019-05-14T13:18:01.369Z,16.50
2019-05-14T13:20:31.702Z,17.00
2019-05-14T13:23:02.019Z,17.40
2019-05-14T13:25:32.452Z,17.40
2019-05-14T13:28:02.805Z,17.10
2019-05-14T13:30:33.239Z,16.70
2019-05-14T13:33:03.567Z,16.20
2019-05-14T13:35:34.030Z,16.00
2019-05-14T13:38:04.355Z,16.20
2019-05-14T13:40:34.687Z,16.50
2019-05-14T13:43:05.015Z,16.90
2019-05-14T13:45:35.325Z,17.20
2019-05-14T13:48:08.183Z,17.60
2019-05-14T13:50:40.101Z,18.00
2019-05-14T13:53:12.736Z,17.70
2019-05-14T13:55:46.138Z,17.70
2019-05-14T13:58:14.036Z,17.50
2019-05-14T14:00:44.381Z,17.30
2019-05-14T14:03:14.681Z,17.60
2019-05-14T14:05:44.988Z,17.50
2019-05-14T14:08:15.370Z,17.70
2019-05-14T14:10:51.664Z,17.80
2019-05-14T14:13:19.845Z,17.70
2019-05-14T14:15:49.645Z,17.70
2019-05-14T14:18:21.050Z,17.80
2019-05-14T14:20:51.711Z,18.00
2019-05-14T14:23:27.220Z,18.10
2019-05-14T14:25:55.568Z,18.10
2019-05-14T14:28:26.168Z,17.90
2019-05-14T14:30:56.480Z,17.60
2019-05-14T14:33:28.889Z,17.40
2019-05-14T14:35:58.732Z,17.40
2019-05-14T14:38:29.532Z,17.30
2019-05-14T14:40:59.974Z,17.50
2019-05-14T14:43:30.374Z,17.70
2019-05-14T14:46:06.543Z,17.70
2019-05-14T14:48:35.027Z,17.20
2019-05-14T14:51:08.332Z,16.90
2019-05-14T14:53:52.413Z,17.00
2019-05-14T14:56:12.261Z,17.50
2019-05-14T14:58:42.711Z,17.90
2019-05-14T15:01:13.111Z,18.30
2019-05-14T15:03:43.699Z,18.40
2019-05-14T15:06:14.166Z,18.20
2019-05-14T15:08:44.622Z,18.60
2019-05-14T15:11:16.811Z,18.60
2019-05-14T15:13:48.265Z,18.70
2019-05-14T15:16:19.967Z,18.50
2019-05-14T15:18:50.758Z,18.30
2019-05-14T15:21:21.177Z,18.40
2019-05-14T15:24:05.542Z,18.50
2019-05-14T15:26:23.598Z,18.80
2019-05-14T15:28:53.899Z,19.10
2019-05-14T15:31:24.213Z,19.20
2019-05-14T15:33:54.521Z,19.20
2019-05-14T15:36:24.822Z,18.90
2019-05-14T15:38:55.254Z,18.70
2019-05-14T15:41:25.628Z,18.60
2019-05-14T15:43:58.705Z,18.30
2019-05-14T15:46:28.142Z,18.00
2019-05-14T15:48:59.497Z,18.20
2019-05-14T15:51:29.939Z,18.50
2019-05-14T15:54:11.580Z,19.00
2019-05-14T15:56:32.541Z,19.00
2019-05-14T15:59:04.004Z,19.20
2019-05-14T16:01:35.757Z,18.90
2019-05-14T16:04:11.448Z,18.50
2019-05-14T16:06:41.976Z,18.00
2019-05-14T16:09:13.380Z,17.90
2019-05-14T16:11:45.268Z,18.30
2019-05-14T16:14:19.282Z,18.20
2019-05-14T16:16:50.986Z,18.40
2019-05-14T16:19:22.688Z,18.70
2019-05-14T16:21:53.982Z,18.90
2019-05-14T16:24:28.527Z,19.20
2019-05-14T16:27:01.916Z,19.10
2019-05-14T16:29:44.118Z,19.20
2019-05-14T16:32:08.613Z,19.20
2019-05-14T16:34:43.720Z,18.80
2019-05-14T16:37:18.081Z,18.40
2019-05-14T16:39:49.047Z,18.00
2019-05-14T16:42:20.999Z,17.70
2019-05-14T16:44:52.443Z,17.50
2019-05-14T16:47:23.026Z,17.40
2019-05-14T16:49:53.312Z,17.30
2019-05-14T16:52:23.644Z,17.10
2019-05-14T16:55:14.916Z,16.80
2019-05-14T16:57:26.009Z,16.80
2019-05-14T16:59:58.516Z,16.60
2019-05-14T17:02:29.710Z,16.50
2019-05-14T17:05:00.150Z,16.80
2019-05-14T17:07:30.462Z,17.30
2019-05-14T17:10:00.950Z,17.40
2019-05-14T17:12:48.345Z,17.50
2019-05-14T17:15:03.318Z,17.70
2019-05-14T17:17:33.978Z,17.90
2019-05-14T17:20:04.638Z,18.10
2019-05-14T17:22:34.962Z,18.30
2019-05-14T17:25:05.382Z,18.50
2019-05-14T17:27:35.954Z,18.70
2019-05-14T17:30:08.731Z,18.90
2019-05-14T17:32:39.638Z,19.10
2019-05-14T17:35:11.475Z,19.20
2019-05-14T17:37:42.754Z,19.20
2019-05-14T17:40:17.055Z,19.30
2019-05-14T17:42:49.474Z,19.20
2019-05-14T17:45:21.879Z,18.70
2019-05-14T17:47:54.086Z,18.20
2019-05-14T17:50:25.275Z,17.70
2019-05-14T17:52:57.007Z,17.30
2019-05-14T17:55:43.166Z,17.10
2019-05-14T17:58:01.143Z,17.20
2019-05-14T18:00:32.753Z,17.20
2019-05-14T18:03:03.229Z,17.10
2019-05-14T18:05:33.682Z,17.00
2019-05-14T18:08:04.022Z,16.70
2019-05-14T18:10:34.469Z,16.30
2019-05-14T18:13:04.833Z,15.90
2019-05-14T18:15:35.158Z,15.70
2019-05-14T18:18:05.603Z,15.40
2019-05-14T18:20:36.022Z,15.30
2019-05-14T18:23:11.402Z,15.20
2019-05-14T18:25:39.072Z,15.40
2019-05-14T18:28:09.813Z,15.50
2019-05-14T18:30:40.521Z,15.50
2019-05-14T18:33:10.846Z,15.40
2019-05-14T18:35:46.579Z,15.20
2019-05-14T18:38:13.982Z,15.20
2019-05-14T18:40:44.450Z,15.00
2019-05-14T18:43:15.957Z,14.80
2019-05-14T18:45:48.119Z,14.60
2019-05-14T18:48:19.365Z,14.50
2019-05-14T18:50:50.115Z,14.30
2019-05-14T18:53:21.177Z,14.10
2019-05-14T18:55:55.008Z,13.90
2019-05-14T18:58:26.199Z,13.70
2019-05-14T19:00:58.551Z,13.60
2019-05-14T19:03:28.999Z,13.50
2019-05-14T19:05:59.413Z,13.40
2019-05-14T19:08:29.866Z,13.30
2019-05-14T19:11:00.161Z,13.20
2019-05-14T19:13:30.461Z,13.10
2019-05-14T19:16:00.778Z,13.00
2019-05-14T19:18:31.194Z,12.90
2019-05-14T19:21:01.482Z,12.90
2019-05-14T19:23:31.794Z,12.80
2019-05-14T19:26:02.129Z,12.70
2019-05-14T19:28:32.429Z,12.60
2019-05-14T19:31:02.757Z,12.50
2019-05-14T19:33:33.094Z,12.40
2019-05-14T19:36:03.550Z,12.30
2019-05-14T19:38:34.352Z,12.20
2019-05-14T19:41:04.913Z,12.10
2019-05-14T19:43:36.449Z,12.10
2019-05-14T19:46:08.806Z,12.00
2019-05-14T19:48:39.383Z,11.90
2019-05-14T19:51:09.977Z,11.80
2019-05-14T19:53:40.736Z,11.80
2019-05-14T19:56:11.450Z,11.70
2019-05-14T19:58:41.909Z,11.70
2019-05-14T20:01:12.320Z,11.60
2019-05-14T20:03:42.713Z,11.60
2019-05-14T20:06:13.612Z,11.60
2019-05-14T20:08:44.122Z,11.50
2019-05-14T20:11:14.454Z,11.40
2019-05-14T20:13:44.849Z,11.40
2019-05-14T20:16:15.150Z,11.40
2019-05-14T20:18:45.470Z,11.30
2019-05-14T20:21:15.859Z,11.20
2019-05-14T20:23:48.136Z,11.20
2019-05-14T20:26:18.162Z,11.10
2019-05-14T20:28:48.548Z,11.00
2019-05-14T20:31:18.876Z,11.00
2019-05-14T20:33:49.146Z,10.90
2019-05-14T20:36:19.635Z,10.80
2019-05-14T20:38:50.018Z,10.80
2019-05-14T20:41:20.430Z,10.80
2019-05-14T20:43:50.759Z,10.70
2019-05-14T20:46:21.066Z,10.70
2019-05-14T20:48:51.507Z,10.60
2019-05-14T20:51:21.878Z,10.60
2019-05-14T20:53:52.194Z,10.50
2019-05-14T20:56:22.631Z,10.50
2019-05-14T20:58:53.002Z,10.50
2019-05-14T21:01:23.289Z,10.40
2019-05-14T21:03:53.615Z,10.40
2019-05-14T21:06:23.922Z,10.30
2019-05-14T21:08:54.450Z,10.30
2019-05-14T21:11:24.765Z,10.20
2019-05-14T21:13:55.098Z,10.20
2019-05-14T21:16:28.057Z,10.10
2019-05-14T21:18:59.252Z,10.10
2019-05-14T21:21:29.430Z,10.10
2019-05-14T21:23:59.842Z,10.00
2019-05-14T21:26:30.346Z,10.00
2019-05-14T21:29:00.677Z,9.90
2019-05-14T21:31:30.975Z,9.90
2019-05-14T21:34:01.300Z,9.80
2019-05-14T21:36:31.605Z,9.80
2019-05-14T21:39:03.920Z,9.80
2019-05-14T21:41:34.235Z,9.80
2019-05-14T21:44:04.551Z,9.70
2019-05-14T21:46:34.841Z,9.60
2019-05-14T21:49:05.153Z,9.60
2019-05-14T21:51:35.445Z,9.60
2019-05-14T21:54:05.745Z,9.60
2019-05-14T21:56:38.458Z,9.60
2019-05-14T21:59:09.433Z,9.50
2019-05-14T22:01:40.614Z,9.50
2019-05-14T22:04:11.858Z,9.40
2019-05-14T22:06:42.258Z,9.40
2019-05-14T22:09:12.656Z,9.30
2019-05-14T22:11:43.030Z,9.30
2019-05-14T22:14:13.417Z,9.30
2019-05-14T22:16:43.765Z,9.20
2019-05-14T22:19:14.106Z,9.20
2019-05-14T22:21:44.413Z,9.20
2019-05-14T22:24:14.714Z,9.10
2019-05-14T22:26:47.884Z,9.10
2019-05-14T22:29:17.877Z,9.00
2019-05-14T22:31:48.286Z,9.00
2019-05-14T22:34:19.890Z,8.90
2019-05-14T22:36:50.190Z,8.90
2019-05-14T22:39:20.533Z,8.80
2019-05-14T22:41:50.837Z,8.80
2019-05-14T22:44:21.154Z,8.70
2019-05-14T22:46:51.448Z,8.70
2019-05-14T22:49:21.794Z,8.60
2019-05-14T22:51:52.090Z,8.60
2019-05-14T22:54:22.473Z,8.60
2019-05-14T22:56:52.839Z,8.50
2019-05-14T22:59:23.230Z,8.50
2019-05-14T23:01:53.605Z,8.50
2019-05-14T23:04:23.932Z,8.40
2019-05-14T23:06:54.224Z,8.40
2019-05-14T23:09:24.552Z,8.40
2019-05-14T23:11:54.841Z,8.30
2019-05-14T23:14:25.195Z,8.30
2019-05-14T23:16:55.546Z,8.30
2019-05-14T23:19:25.879Z,8.20
2019-05-14T23:21:58.066Z,8.20
2019-05-14T23:24:28.613Z,8.20
2019-05-14T23:26:59.125Z,8.10
2019-05-14T23:29:29.466Z,8.00
2019-05-14T23:31:59.985Z,8.00
2019-05-14T23:34:30.299Z,8.00
2019-05-14T23:37:00.994Z,7.90
2019-05-14T23:39:31.577Z,7.90
2019-05-14T23:42:02.078Z,7.90
2019-05-14T23:44:32.498Z,7.90
2019-05-14T23:47:02.794Z,7.80
2019-05-14T23:49:33.155Z,7.70
2019-05-14T23:52:03.450Z,7.70
2019-05-14T23:54:33.905Z,7.70
2019-05-14T23:57:04.251Z,7.70
2019-05-14T23:59:35.573Z,7.60
